Time;durP1;ratioP1;P1;durP2;ratioP2;P2;SDS_P1;SDS_P2;PMS_P1;PMS_P2;Temp;Humidity;BMP_temperature;BMP_pressure;BME280_temperature;BME280_humidity;BME280_pressure;Samples;Min_cycle;Max_cycle;Signal;HPM_P1;HPM_P2
2022/08/08 00:00:54;;;;;;;4.58;2.42;;;;;;;12.58;69.71;97765.55;1689088;84;25752;-76
2022/08/08 00:04:04;;;;;;;5.28;2.75;;;;;;;12.59;69.76;97769.41;1688878;84;25425;-77
2022/08/08 00:07:09;;;;;;;5.83;2.62;;;;;;;12.59;69.74;97768.05;1691284;84;25816;-75
2022/08/08 00:09:50;;;;;;;3.42;2.30;;;;;;;12.57;69.87;97760.66;1634474;87;27442;-77
2022/08/08 00:12:21;;;;;;;6.15;2.85;;;;;;;12.56;69.97;97763.58;1639613;86;26449;-74
2022/08/08 00:14:53;;;;;;;4.05;2.50;;;;;;;12.56;69.94;97765.77;1637754;87;26484;-75
2022/08/08 00:17:46;;;;;;;3.50;2.72;;;;;;;12.56;69.97;97758.99;1622061;87;26516;-77
2022/08/08 00:20:16;;;;;;;;;;;;;;;12.54;70.14;97758.41;1618198;88;25863;-76
2022/08/08 00:22:49;;;;;;;4.97;2.62;;;;;;;12.53;70.56;97759.97;1618994;88;27462;-75
2022/08/08 00:25:33;;;;;;;4.87;2.50;;;;;;;12.50;70.48;97747.69;1619016;88;25785;-76
2022/08/08 00:28:03;;;;;;;4.40;3.05;;;;;;;12.48;70.56;97751.13;1542636;92;25369;-76
2022/08/08 00:30:34;;;;;;;5.65;3.20;;;;;;;12.49;70.63;97748.73;1540638;92;26358;-76
2022/08/08 00:33:08;;;;;;;4.87;3.10;;;;;;;12.50;70.63;97747.69;1543232;92;25833;-75
2022/08/08 00:36:18;;;;;;;5.85;3.15;;;;;;;12.50;70.65;97746.33;1537932;92;27256;-75
2022/08/08 00:39:10;;;;;;;3.52;2.60;;;;;;;12.51;70.73;97744.45;1497169;95;25856;-76
2022/08/08 00:42:17;;;;;;;4.75;3.10;;;;;;;12.52;70.81;97744.24;1537187;93;25345;-76
2022/08/08 00:45:18;;;;;;;4.70;2.80;;;;;;;12.52;70.88;97741.53;1518414;94;25767;-75
2022/08/08 00:48:29;;;;;;;4.22;2.80;;;;;;;12.56;70.91;97744.63;1560833;91;26961;-76
2022/08/08 00:51:37;;;;;;;4.67;2.90;;;;;;;12.51;70.97;97739.04;1563337;91;27404;-74
2022/08/08 00:54:43;;;;;;;4.47;2.30;;;;;;;12.47;71.16;97739.98;1563056;91;25882;-75
2022/08/08 00:57:37;;;;;;;4.40;2.72;;;;;;;12.48;71.23;97738.94;1563267;91;25850;-75
2022/08/08 01:00:18;;;;;;;5.17;2.70;;;;;;;12.51;71.26;97736.33;1560284;91;26472;-75
2022/08/08 01:03:10;;;;;;;3.30;2.90;;;;;;;12.51;71.29;97729.04;1563288;91;25897;-75
2022/08/08 01:06:08;;;;;;;3.75;2.22;;;;;;;12.52;71.33;97723.94;1581015;89;27635;-75
2022/08/08 01:09:21;;;;;;;5.15;2.80;;;;;;;12.51;71.44;97734.45;1549738;91;25918;-75
2022/08/08 01:12:18;;;;;;;5.08;2.72;;;;;;;12.48;71.56;97733.52;1567679;89;25833;-77
2022/08/08 01:15:14;;;;;;;6.90;3.05;;;;;;;12.47;71.60;97729.16;1602208;88;26507;-76
2022/08/08 01:18:24;;;;;;;3.85;2.87;;;;;;;12.50;71.73;97730.08;1614320;88;26082;-76
2022/08/08 01:21:39;;;;;;;5.37;2.98;;;;;;;12.51;71.75;97731.75;1614848;88;27326;-76
2022/08/08 01:24:28;;;;;;;2.70;2.47;;;;;;;12.52;71.80;97736.64;1615329;88;25836;-76
2022/08/08 01:27:16;;;;;;;3.42;2.70;;;;;;;12.52;71.90;97737.47;1549334;91;25883;-76
2022/08/08 01:30:05;;;;;;;4.78;3.00;;;;;;;12.54;71.93;97737.27;1549342;92;26014;-75
2022/08/08 01:33:03;;;;;;;4.75;3.00;;;;;;;12.56;72.01;97740.56;1524780;94;25761;-75
2022/08/08 01:36:00;;;;;;;5.62;3.33;;;;;;;12.54;72.10;97739.97;1549257;91;27590;-75
2022/08/08 01:39:07;;;;;;;3.90;2.52;;;;;;;12.55;72.16;97746.53;1532588;93;25953;-76
2022/08/08 01:42:02;;;;;;;5.12;2.60;;;;;;;12.57;72.17;97734.93;1529765;93;25800;-76
2022/08/08 01:44:57;;;;;;;4.25;3.52;;;;;;;12.57;72.21;97730.87;1495466;95;25805;-75
2022/08/08 01:48:06;;;;;;;3.08;2.72;;;;;;;12.59;72.25;97726.59;1522327;93;25880;-75
2022/08/08 01:51:09;;;;;;;5.17;2.67;;;;;;;12.59;72.33;97715.24;1517812;94;27370;-76
2022/08/08 01:54:16;;;;;;;2.95;2.65;;;;;;;12.61;72.41;97716.38;1501142;95;25965;-75
2022/08/08 01:57:18;;;;;;;3.20;2.62;;;;;;;12.60;72.45;97712.84;1508443;95;25793;-76
2022/08/08 02:00:06;;;;;;;15.10;2.92;;;;;;;12.59;72.47;97708.47;1508826;95;25879;-77
2022/08/08 02:02:56;;;;;;;3.12;2.62;;;;;;;12.59;72.54;97701.70;1507985;95;25841;-76
2022/08/08 02:06:00;;;;;;;4.03;2.77;;;;;;;12.60;72.58;97702.01;1599310;89;27528;-76
2022/08/08 02:08:56;;;;;;;3.83;2.80;;;;;;;12.57;72.73;97698.90;1604609;89;25883;-76
2022/08/08 02:11:36;;;;;;;3.30;2.70;;;;;;;12.56;72.75;97702.13;1604960;89;25756;-77
2022/08/08 02:14:13;;;;;;;4.53;2.75;;;;;;;12.55;72.80;97694.25;1603772;89;25983;-75
2022/08/08 02:16:54;;;;;;;5.00;2.92;;;;;;;12.55;72.78;97699.66;1604884;89;25760;-77
2022/08/08 02:19:29;;;;;;;7.75;3.50;;;;;;;12.56;72.84;97700.77;1604012;89;27582;-75
2022/08/08 02:22:30;;;;;;;6.80;3.02;;;;;;;12.55;72.89;97700.49;1551163;92;25743;-76
2022/08/08 02:25:41;;;;;;;3.77;2.77;;;;;;;12.55;72.97;97704.56;1553863;92;25980;-75
2022/08/08 02:28:28;;;;;;;3.75;2.65;;;;;;;12.55;73.04;97696.44;1539480;93;27032;-77
2022/08/08 02:31:24;;;;;;;4.65;3.27;;;;;;;12.56;73.07;97703.48;1530578;93;25782;-75
2022/08/08 02:34:10;;;;;;;7.80;3.20;;;;;;;12.56;73.18;97711.61;1525390;93;27428;-76
2022/08/08 02:36:45;;;;;;;5.42;3.27;;;;;;;12.51;73.24;97701.96;1483921;95;25891;-76
2022/08/08 02:40:01;;;;;;;6.28;3.45;;;;;;;12.52;73.33;97706.34;1526436;93;25349;-76
2022/08/08 02:42:52;;;;;;;3.83;3.00;;;;;;;12.52;73.40;97702.80;1578876;90;26408;-76
2022/08/08 02:45:52;;;;;;;4.20;2.95;;;;;;;12.53;73.45;97705.29;1559707;91;25890;-75
2022/08/08 02:49:06;;;;;;;7.35;2.90;;;;;;;12.54;73.42;97706.13;1553216;91;27403;-75
2022/08/08 02:51:57;;;;;;;;;;;;;;;12.52;73.36;97710.92;1555461;92;25822;-75
2022/08/08 02:54:56;;;;;;;4.40;2.80;;;;;;;12.51;73.68;97714.15;1528446;93;25907;-76
2022/08/08 02:58:10;;;;;;;4.55;3.37;;;;;;;12.51;73.67;97714.67;1581916;90;26497;-76
2022/08/08 03:01:12;;;;;;;4.92;2.87;;;;;;;12.46;73.65;97712.59;1637630;87;25827;-76
2022/08/08 03:04:09;;;;;;;6.33;2.70;;;;;;;12.43;73.75;97713.05;1584416;90;27629;-76
2022/08/08 03:07:06;;;;;;;3.12;2.83;;;;;;;12.43;73.76;97711.70;1576793;90;25824;-76
2022/08/08 03:10:01;;;;;;;6.00;3.10;;;;;;;12.45;73.74;97716.34;1576786;90;25881;-75
2022/08/08 03:12:54;;;;;;;5.30;2.77;;;;;;;12.45;73.73;97726.34;1576603;90;25791;-76
2022/08/08 03:15:29;;;;;;;5.35;3.08;;;;;;;12.44;73.79;97728.22;1598756;89;26095;-76
2022/08/08 03:18:21;;;;;;;2.90;2.62;;;;;;;12.43;73.87;97736.59;1597452;89;28166;-77
2022/08/08 03:20:48;;;;;;;5.03;3.12;;;;;;;12.44;73.97;97738.22;1569655;91;25808;-76
2022/08/08 03:23:15;;;;;;;6.65;3.00;;;;;;;12.41;74.05;97735.45;1605654;88;25762;-76
2022/08/08 03:25:44;;;;;;;6.65;2.90;;;;;;;12.37;74.05;97734.72;1643451;86;26505;-75
2022/08/08 03:28:28;;;;;;;3.25;2.60;;;;;;;12.36;74.14;97727.64;1665391;86;25831;-76
2022/08/08 03:30:56;;;;;;;4.85;3.12;;;;;;;12.37;74.21;97724.73;1663163;86;56363;-76
2022/08/08 03:33:24;;;;;;;4.62;3.12;;;;;;;12.40;74.23;97728.89;1665026;86;25774;-76
2022/08/08 03:35:51;;;;;;;3.25;2.83;;;;;;;12.42;74.24;97733.05;1665287;86;25703;-77
2022/08/08 03:38:21;;;;;;;5.55;2.95;;;;;;;12.44;74.24;97739.05;1665372;86;25803;-74
2022/08/08 03:40:54;;;;;;;4.80;3.40;;;;;;;12.45;74.33;97740.72;1690328;83;25917;-74
2022/08/08 03:43:21;;;;;;;3.95;3.20;;;;;;;12.46;74.38;97735.61;1715226;83;27395;-74
2022/08/08 03:45:47;;;;;;;10.28;3.52;;;;;;;12.47;74.39;97726.45;1715354;83;25709;-74
2022/08/08 03:48:14;;;;;;;4.90;3.10;;;;;;;12.49;74.54;97731.13;1715544;83;25303;-74
2022/08/08 03:50:47;;;;;;;6.37;3.45;;;;;;;12.50;74.50;97744.14;1714918;83;26542;-74
2022/08/08 03:53:19;;;;;;;3.33;2.75;;;;;;;12.50;74.48;97746.33;1712071;83;25904;-74
2022/08/08 03:55:48;;;;;;;4.12;3.25;;;;;;;12.53;74.54;97749.14;1714958;83;28292;-73
2022/08/08 03:58:21;;;;;;;5.95;3.12;;;;;;;12.56;74.54;97745.97;1715009;83;25891;-74
2022/08/08 04:00:56;;;;;;;6.22;3.30;;;;;;;12.56;74.58;97748.16;1697937;84;25883;-74
2022/08/08 04:03:23;;;;;;;6.28;2.98;;;;;;;12.59;74.65;97747.73;1698165;84;26430;-74
2022/08/08 04:05:50;;;;;;;4.80;3.00;;;;;;;12.61;74.73;97747.53;1698110;84;25838;-74
2022/08/08 04:08:20;;;;;;;4.00;2.98;;;;;;;12.57;74.71;97748.47;1697958;84;27617;-74
2022/08/08 04:10:49;;;;;;;6.30;3.27;;;;;;;12.61;74.79;97756.48;1672134;85;25812;-74
2022/08/08 04:13:19;;;;;;;7.90;3.10;;;;;;;12.65;74.80;97764.19;1672280;85;25824;-73
2022/08/08 04:15:46;;;;;;;6.65;3.42;;;;;;;12.68;74.88;97767.82;1672396;85;25853;-75
2022/08/08 04:18:12;;;;;;;7.12;4.58;;;;;;;12.71;74.99;97774.14;1674607;85;25946;-74
2022/08/08 04:20:39;;;;;;;7.30;4.72;;;;;;;12.74;75.01;97773.72;1675569;85;27422;-74
2022/08/08 04:23:05;;;;;;;6.78;3.85;;;;;;;12.78;75.01;97769.54;1675305;85;25743;-74
2022/08/08 04:25:32;;;;;;;9.05;3.83;;;;;;;12.75;74.89;97773.50;1675493;85;25823;-73
2022/08/08 04:27:59;;;;;;;4.28;3.35;;;;;;;12.76;74.88;97771.62;1675622;85;26345;-73
2022/08/08 04:30:25;;;;;;;4.10;2.90;;;;;;;12.79;74.91;97773.91;1675565;85;25759;-74
2022/08/08 04:32:52;;;;;;;6.17;4.00;;;;;;;12.83;74.86;97766.99;1675608;85;27483;-73
2022/08/08 04:35:19;;;;;;;4.37;2.85;;;;;;;12.87;74.87;97763.64;1675592;85;25794;-73
2022/08/08 04:37:46;;;;;;;3.70;2.90;;;;;;;12.91;74.90;97756.75;1681340;84;26743;-73
2022/08/08 04:40:12;;;;;;;7.95;3.25;;;;;;;12.96;74.95;97763.69;1686750;85;26366;-73
2022/08/08 04:42:39;;;;;;;5.03;3.50;;;;;;;12.99;74.99;97758.36;1686560;85;25725;-73
2022/08/08 04:45:07;;;;;;;7.47;3.62;;;;;;;13.01;74.91;97753.56;1686586;85;27985;-73
2022/08/08 04:47:34;;;;;;;6.60;3.40;;;;;;;13.04;74.91;97756.36;1686408;85;25390;-74
2022/08/08 04:50:00;;;;;;;5.55;3.95;;;;;;;13.05;74.88;97758.83;1686632;85;25842;-74
2022/08/08 04:52:27;;;;;;;3.85;3.15;;;;;;;13.09;74.82;97765.48;1686532;85;26410;-73
2022/08/08 04:54:54;;;;;;;6.33;3.58;;;;;;;13.13;74.82;97762.66;1694612;84;25884;-73
2022/08/08 04:57:20;;;;;;;8.13;3.87;;;;;;;13.19;74.75;97755.55;1698539;84;27501;-74
2022/08/08 04:59:47;;;;;;;8.90;4.33;;;;;;;13.22;74.75;97753.23;1703870;84;25654;-73
2022/08/08 05:02:13;;;;;;;9.00;4.22;;;;;;;13.23;74.87;97749.47;1703982;84;25326;-73
2022/08/08 05:04:41;;;;;;;14.55;4.30;;;;;;;13.26;74.96;97752.28;1703661;84;25960;-74
2022/08/08 05:07:07;;;;;;;8.90;4.15;;;;;;;13.29;75.02;97754.00;1727129;80;25729;-73
2022/08/08 05:09:34;;;;;;;8.18;4.87;;;;;;;13.35;74.90;97757.73;1785115;80;27384;-73
2022/08/08 05:12:02;;;;;;;6.37;4.58;;;;;;;13.38;74.87;97756.46;1784908;80;25166;-74
2022/08/08 05:14:29;;;;;;;6.95;4.58;;;;;;;13.40;74.86;97753.84;1784727;80;25713;-73
2022/08/08 05:16:55;;;;;;;6.30;4.20;;;;;;;13.43;74.74;97751.19;1785173;80;25678;-74
2022/08/08 05:19:22;;;;;;;9.23;4.60;;;;;;;13.45;74.60;97747.21;1785357;80;25430;-73
2022/08/08 05:21:52;;;;;;;6.25;4.17;;;;;;;13.47;74.49;97751.06;1785150;80;28138;-74
2022/08/08 05:24:17;;;;;;;6.72;4.33;;;;;;;13.47;74.54;97752.42;1784900;80;25650;-75
2022/08/08 05:26:47;;;;;;;9.20;4.87;;;;;;;13.50;74.54;97752.81;1785181;80;25741;-74
2022/08/08 05:29:13;;;;;;;5.30;4.20;;;;;;;13.57;74.51;97752.74;1785059;80;25678;-75
2022/08/08 05:31:40;;;;;;;5.72;4.42;;;;;;;13.63;74.42;97751.87;1785136;80;25227;-74
2022/08/08 05:34:21;;;;;;;8.00;4.92;;;;;;;13.67;74.40;97755.25;1785051;80;27996;-75
2022/08/08 05:36:49;;;;;;;7.30;4.78;;;;;;;13.72;74.34;97761.38;1784105;80;25651;-76
2022/08/08 05:39:20;;;;;;;6.42;4.80;;;;;;;13.76;74.36;97763.97;1785083;80;25741;-76
2022/08/08 05:41:51;;;;;;;7.70;4.87;;;;;;;13.80;74.31;97783.32;1785103;80;25784;-76
2022/08/08 05:44:28;;;;;;;5.00;4.33;;;;;;;13.83;74.21;97795.92;1732856;82;25455;-76
2022/08/08 05:46:57;;;;;;;8.03;4.25;;;;;;;13.86;74.07;97800.08;1732688;82;27555;-76
2022/08/08 05:49:24;;;;;;;9.25;4.92;;;;;;;13.89;73.98;97805.04;1732766;82;25809;-75
2022/08/08 05:51:50;;;;;;;7.22;4.70;;;;;;;13.90;73.95;97808.06;1732845;82;25788;-76
2022/08/08 05:54:18;;;;;;;5.92;4.35;;;;;;;13.92;73.92;97814.10;1725589;82;26509;-76
2022/08/08 05:56:45;;;;;;;6.37;4.50;;;;;;;13.93;73.97;97805.73;1721609;83;25778;-76
2022/08/08 05:59:21;;;;;;;8.25;4.75;;;;;;;13.98;73.88;97811.34;1721544;83;27368;-77
2022/08/08 06:01:53;;;;;;;6.95;4.70;;;;;;;14.00;73.83;97801.62;1721266;83;25752;-76
2022/08/08 06:04:26;;;;;;;8.50;4.65;;;;;;;14.01;73.86;97794.59;1653286;86;25805;-75
2022/08/08 06:06:55;;;;;;;7.00;4.40;;;;;;;14.08;74.10;97803.20;1653279;86;26654;-75
2022/08/08 06:12:01;;;;;;;5.37;4.58;;;;;;;14.13;73.91;97793.32;1579719;90;28147;-76
2022/08/08 06:14:28;;;;;;;6.03;4.47;;;;;;;14.18;73.77;97807.59;1579557;90;25349;-76
2022/08/08 06:17:00;;;;;;;8.40;4.33;;;;;;;14.25;73.76;97812.45;1579716;90;25875;-75
2022/08/08 06:19:27;;;;;;;7.43;4.07;;;;;;;14.34;73.81;97810.56;1580067;90;25762;-76
2022/08/08 06:21:54;;;;;;;6.33;4.37;;;;;;;14.41;73.43;97822.20;1579720;90;25927;-75
2022/08/08 06:24:21;;;;;;;8.18;3.75;;;;;;;14.47;73.20;97823.20;1579774;90;27396;-76
2022/08/08 06:27:01;;;;;;;7.10;3.60;;;;;;;14.53;73.04;97822.28;1579774;90;25532;-77
2022/08/08 06:29:54;;;;;;;5.45;3.20;;;;;;;14.59;72.90;97815.13;1515798;94;25846;-76
2022/08/08 06:32:26;;;;;;;10.25;3.83;;;;;;;14.65;72.92;97824.55;1515912;94;25798;-76
2022/08/08 06:34:55;;;;;;;8.00;3.72;;;;;;;14.71;72.70;97823.66;1515983;94;25802;-76
2022/08/08 06:37:27;;;;;;;7.70;4.12;;;;;;;14.74;72.66;97819.09;1515867;94;27497;-77
2022/08/08 06:39:57;;;;;;;7.03;3.90;;;;;;;14.78;72.60;97816.23;1515920;94;25836;-76
2022/08/08 06:42:28;;;;;;;7.67;3.95;;;;;;;14.78;72.67;97810.80;1525511;92;25824;-77
2022/08/08 06:44:55;;;;;;;6.60;4.03;;;;;;;14.78;72.83;97819.48;1525605;92;25866;-76
2022/08/08 06:47:21;;;;;;;14.05;3.90;;;;;;;14.82;72.75;97813.06;1525567;94;25631;-77
2022/08/08 06:49:48;;;;;;;6.22;3.47;;;;;;;14.85;72.68;97806.66;1525532;94;27423;-77
2022/08/08 06:52:16;;;;;;;6.00;4.20;;;;;;;14.90;72.68;97808.14;1525467;94;25867;-77
2022/08/08 06:54:44;;;;;;;10.50;4.10;;;;;;;14.96;72.74;97803.69;1542813;91;26052;-76
2022/08/08 06:57:11;;;;;;;4.37;3.85;;;;;;;14.99;72.63;97793.16;1550029;92;26478;-76
2022/08/08 06:59:37;;;;;;;10.13;3.90;;;;;;;14.98;72.76;97792.03;1550394;91;25873;-76
2022/08/08 07:02:05;;;;;;;8.23;3.80;;;;;;;15.02;72.91;97791.88;1570669;91;28339;-77
2022/08/08 07:04:58;;;;;;;8.33;4.08;;;;;;;15.07;73.03;97795.58;1574460;91;25859;-76
2022/08/08 07:07:39;;;;;;;;;;;;;;;15.12;73.07;97800.31;1597333;89;25845;-76
2022/08/08 07:10:09;;;;;;;7.45;3.80;;;;;;;15.18;73.04;97798.57;1613597;88;26438;-76
2022/08/08 07:12:45;;;;;;;10.85;5.62;;;;;;;15.20;72.82;97800.00;1616439;88;25523;-77
2022/08/08 07:15:14;;;;;;;8.00;5.12;;;;;;;15.23;72.57;97796.80;1616295;88;27232;-77
2022/08/08 07:17:49;;;;;;;7.25;5.90;;;;;;;15.28;72.54;97798.84;1616382;88;26689;-76
2022/08/08 07:20:33;;;;;;;12.10;6.65;;;;;;;15.31;72.41;97799.21;1616447;88;25821;-76
2022/08/08 07:23:21;;;;;;;8.25;6.53;;;;;;;15.35;72.48;97805.83;1613648;88;25846;-76
2022/08/08 07:25:51;;;;;;;7.28;6.22;;;;;;;15.40;72.52;97814.66;1674905;82;25757;-76
2022/08/08 07:28:25;;;;;;;8.03;6.45;;;;;;;15.45;72.38;97817.00;1746195;82;27388;-76
2022/08/08 07:30:52;;;;;;;5.08;4.08;;;;;;;15.52;72.48;97816.05;1746017;82;25894;-77
2022/08/08 07:33:25;;;;;;;7.03;3.77;;;;;;;15.56;72.31;97815.93;1746063;82;25798;-76
2022/08/08 07:35:52;;;;;;;6.17;3.65;;;;;;;15.59;72.03;97821.71;1746165;82;26856;-76
2022/08/08 07:38:19;;;;;;;6.80;3.52;;;;;;;15.63;71.93;97822.09;1746116;82;25838;-77
2022/08/08 07:40:47;;;;;;;4.28;3.22;;;;;;;15.67;71.88;97821.92;1745721;82;27503;-76
2022/08/08 07:43:15;;;;;;;5.20;3.85;;;;;;;15.72;71.90;97817.95;1745915;82;25997;-76
2022/08/08 07:45:44;;;;;;;9.73;4.58;;;;;;;15.77;71.95;97811.29;1746017;82;25296;-76
2022/08/08 07:48:11;;;;;;;5.37;3.58;;;;;;;15.82;72.14;97820.92;1746227;82;25768;-76
2022/08/08 07:50:37;;;;;;;6.72;3.60;;;;;;;15.92;72.13;97819.01;1746186;82;26503;-76
2022/08/08 07:53:12;;;;;;;6.62;3.58;;;;;;;16.00;72.04;97818.12;1745681;82;28182;-77
2022/08/08 07:55:40;;;;;;;5.12;3.52;;;;;;;16.12;71.93;97820.84;1683661;85;25433;-77
2022/08/08 07:58:29;;;;;;;8.18;3.40;;;;;;;16.28;71.67;97822.04;1686400;85;25738;-78
2022/08/08 08:01:03;;;;;;;8.05;3.05;;;;;;;16.42;71.48;97827.55;1686929;85;25762;-77
2022/08/08 08:03:56;;;;;;;5.25;3.27;;;;;;;16.56;71.14;97828.92;1635857;85;25881;-76
2022/08/08 08:06:26;;;;;;;4.80;3.27;;;;;;;16.64;70.88;97831.33;1618745;88;27385;-77
2022/08/08 08:09:16;;;;;;;6.42;3.30;;;;;;;16.74;71.30;97831.55;1618695;88;25833;-79
2022/08/08 08:11:48;;;;;;;7.50;3.20;;;;;;;16.88;71.22;97830.22;1615694;88;25843;-79
2022/08/08 08:14:44;;;;;;;7.42;3.30;;;;;;;17.02;70.98;97829.94;1616104;88;25740;-78
2022/08/08 08:17:15;;;;;;;10.15;3.85;;;;;;;17.13;70.55;97826.34;1617973;88;25957;-77
2022/08/08 08:19:48;;;;;;;5.83;3.02;;;;;;;17.22;70.41;97833.06;1615747;88;27595;-76
2022/08/08 08:22:16;;;;;;;2.95;2.42;;;;;;;17.36;70.52;97834.97;1618761;88;25839;-77
2022/08/08 08:24:43;;;;;;;5.33;3.02;;;;;;;17.49;69.89;97827.31;1618703;88;25796;-77
2022/08/08 08:27:10;;;;;;;5.50;2.60;;;;;;;17.60;69.17;97834.61;1618722;88;25914;-77
2022/08/08 08:29:37;;;;;;;5.10;2.40;;;;;;;17.65;68.76;97836.61;1618664;88;25765;-76
2022/08/08 08:32:04;;;;;;;4.47;2.90;;;;;;;17.73;68.56;97835.40;1618482;88;27566;-75
2022/08/08 08:34:31;;;;;;;7.40;2.90;;;;;;;17.81;68.38;97833.08;1618326;88;25350;-77
2022/08/08 08:36:57;;;;;;;5.25;2.80;;;;;;;17.93;68.29;97837.92;1612909;88;25760;-76
2022/08/08 08:39:24;;;;;;;6.72;2.72;;;;;;;18.03;68.17;97840.53;1611616;88;25789;-78
2022/08/08 08:41:51;;;;;;;4.83;2.60;;;;;;;18.12;67.80;97841.23;1611672;88;25591;-76
2022/08/08 08:44:18;;;;;;;4.08;2.25;;;;;;;18.23;67.43;97839.51;1613058;88;28278;-76
2022/08/08 08:46:46;;;;;;;5.00;2.33;;;;;;;18.31;67.07;97842.64;1618471;88;25822;-76
2022/08/08 08:49:14;;;;;;;6.03;1.70;;;;;;;18.41;66.94;97839.77;1612910;88;25953;-79
2022/08/08 08:51:42;;;;;;;3.33;2.00;;;;;;;18.50;66.74;97842.34;1627412;84;26579;-77
2022/08/08 08:54:11;;;;;;;4.70;1.85;;;;;;;18.61;66.41;97840.08;1693237;84;25703;-77
2022/08/08 08:56:39;;;;;;;2.85;1.35;;;;;;;18.74;66.51;97834.25;1687430;84;27414;-78
2022/08/08 08:59:07;;;;;;;5.87;1.62;;;;;;;18.92;66.29;97836.69;1747583;80;25954;-77
2022/08/08 09:01:37;;;;;;;3.67;1.30;;;;;;;19.12;65.92;97824.33;1758213;80;25468;-79
2022/08/08 09:04:14;;;;;;;1.98;1.30;;;;;;;19.51;65.52;97825.90;1785021;80;25683;-79
2022/08/08 09:06:41;;;;;;;3.87;1.42;;;;;;;19.97;64.72;97824.95;1779859;80;25737;-78
2022/08/08 09:09:29;;;;;;;1.85;1.40;;;;;;;20.36;63.93;97820.90;1787307;80;27485;-77
2022/08/08 09:11:58;;;;;;;3.90;1.32;;;;;;;20.82;63.00;97815.67;1785164;80;25776;-76
2022/08/08 09:14:26;;;;;;;6.12;1.30;;;;;;;21.09;62.30;97794.39;1785668;80;25762;-78
2022/08/08 09:16:54;;;;;;;4.15;1.30;;;;;;;21.48;61.71;97812.66;1785163;80;25738;-77
2022/08/08 09:19:20;;;;;;;4.40;1.20;;;;;;;21.80;61.15;97802.80;1784840;80;25690;-78
2022/08/08 09:21:50;;;;;;;3.52;1.42;;;;;;;22.20;60.59;97808.06;1785119;80;27959;-77
2022/08/08 09:24:17;;;;;;;3.47;1.20;;;;;;;22.58;60.32;97812.92;1787225;80;25718;-79
2022/08/08 09:27:04;;;;;;;4.25;1.25;;;;;;;22.81;59.25;97822.55;1752338;81;25695;-78
2022/08/08 09:29:36;;;;;;;1.72;1.20;;;;;;;23.22;58.49;97821.00;1725598;82;25704;-77
2022/08/08 09:32:05;;;;;;;1.47;1.15;;;;;;;23.63;57.20;97812.83;1684724;84;25912;-77
2022/08/08 09:34:34;;;;;;;5.33;1.02;;;;;;;24.07;56.93;97825.73;1687590;84;27569;-78
2022/08/08 09:37:07;;;;;;;2.83;1.20;;;;;;;24.39;55.98;97821.09;1671783;84;25803;-79
2022/08/08 09:39:55;;;;;;;4.33;1.42;;;;;;;24.59;55.14;97807.63;1639903;86;25779;-77
2022/08/08 09:42:27;;;;;;;2.80;1.27;;;;;;;24.57;54.14;97817.58;1666992;86;25806;-78
2022/08/08 09:45:13;;;;;;;2.25;0.98;;;;;;;24.77;53.42;97819.29;1622070;86;25532;-78
2022/08/08 09:47:43;;;;;;;4.22;1.05;;;;;;;24.95;52.95;97820.52;1623376;86;27603;-76
2022/08/08 09:50:14;;;;;;;1.57;0.95;;;;;;;25.03;52.22;97818.48;1621286;86;25777;-77
2022/08/08 09:52:45;;;;;;;2.67;0.72;;;;;;;24.94;51.43;97813.34;1542213;91;25855;-78
2022/08/08 09:55:11;;;;;;;4.75;1.10;;;;;;;24.84;51.02;97807.91;1552544;92;26412;-76
2022/08/08 09:57:40;;;;;;;2.67;1.12;;;;;;;24.85;50.89;97812.33;1552588;92;25926;-78
2022/08/08 10:00:13;;;;;;;1.50;1.02;;;;;;;24.74;50.52;97804.16;1552520;92;27472;-79
2022/08/08 10:02:43;;;;;;;2.40;1.20;;;;;;;24.64;50.65;97810.32;1552515;92;25859;-78
2022/08/08 10:05:23;;;;;;;3.10;1.20;;;;;;;24.59;50.56;97811.22;1552599;91;25857;-79
2022/08/08 10:07:55;;;;;;;2.60;1.27;;;;;;;24.48;50.24;97812.99;1463945;96;25885;-80
2022/08/08 10:10:32;;;;;;;3.95;1.10;;;;;;;24.29;50.03;97815.08;1465261;96;25856;-79
2022/08/08 10:13:20;;;;;;;6.35;1.60;;;;;;;24.19;50.20;97812.94;1477777;97;27320;-78
2022/08/08 10:15:51;;;;;;;3.05;1.65;;;;;;;24.13;50.14;97809.42;1458218;98;25853;-78
2022/08/08 10:18:34;;;;;;;5.28;1.35;;;;;;;24.10;49.95;97806.41;1436579;98;25896;-77
2022/08/08 10:21:08;;;;;;;1.95;1.00;;;;;;;23.95;49.80;97810.93;1426659;99;25836;-77
2022/08/08 10:23:44;;;;;;;2.33;1.00;;;;;;;23.91;50.05;97804.92;1423187;99;25920;-77
2022/08/08 10:26:31;;;;;;;2.02;1.20;;;;;;;23.86;50.02;97805.77;1421787;100;26862;-77
2022/08/08 10:29:03;;;;;;;4.58;1.37;;;;;;;23.81;50.62;97804.42;1444845;98;25355;-77
2022/08/08 10:34:19;;;;;;;3.95;1.67;;;;;;;23.63;49.99;97802.36;1378861;104;26048;-77
2022/08/08 10:36:47;;;;;;;2.92;1.45;;;;;;;23.64;50.49;97793.80;1387899;102;25596;-77
2022/08/08 10:39:20;;;;;;;6.55;1.90;;;;;;;23.73;50.70;97798.15;1393568;102;28192;-77
2022/08/08 10:42:00;;;;;;;4.35;1.50;;;;;;;23.86;50.62;97798.05;1395511;102;25575;-77
2022/08/08 10:44:36;;;;;;;4.42;1.90;;;;;;;23.87;50.41;97803.28;1362292;103;26135;-77
2022/08/08 10:47:18;;;;;;;5.67;2.15;;;;;;;24.05;50.58;97799.81;1343056;105;25896;-76
2022/08/08 10:50:00;;;;;;;3.25;1.60;;;;;;;24.30;50.72;97804.31;1365042;104;25858;-78
2022/08/08 10:52:38;;;;;;;;;;;;;;;24.50;50.34;97800.55;1366066;105;27522;-77
2022/08/08 10:55:19;;;;;;;5.53;2.22;;;;;;;24.66;49.33;97796.50;1359967;103;26014;-76
2022/08/08 10:57:49;;;;;;;3.55;1.70;;;;;;;24.73;49.92;97807.21;1376800;104;25980;-76
2022/08/08 11:00:24;;;;;;;2.05;1.45;;;;;;;24.88;49.34;97809.77;1376572;102;25737;-77
2022/08/08 11:02:53;;;;;;;8.55;1.95;;;;;;;24.96;49.41;97806.98;1347235;105;26024;-77
2022/08/08 11:05:20;;;;;;;3.52;1.80;;;;;;;25.14;49.53;97802.04;1333891;106;27686;-77
2022/08/08 11:07:53;;;;;;;6.17;1.62;;;;;;;25.23;49.26;97797.52;1330436;106;26029;-77
2022/08/08 11:10:22;;;;;;;4.35;1.40;;;;;;;25.19;49.15;97806.13;1324078;107;25916;-76
2022/08/08 11:12:53;;;;;;;4.00;1.85;;;;;;;25.36;49.26;97800.91;1348265;106;25929;-77
2022/08/08 11:15:24;;;;;;;2.77;1.37;;;;;;;25.48;48.44;97805.44;1353093;106;25674;-76
2022/08/08 11:17:52;;;;;;;7.45;1.60;;;;;;;25.53;48.51;97800.41;1314936;109;27642;-76
2022/08/08 11:20:22;;;;;;;5.42;1.52;;;;;;;25.69;48.87;97795.52;1315644;108;25955;-76
2022/08/08 11:22:53;;;;;;;4.05;1.72;;;;;;;25.74;48.49;97793.48;1316905;107;25971;-76
2022/08/08 11:25:25;;;;;;;2.87;1.42;;;;;;;25.54;47.24;97794.33;1316775;108;25931;-76
2022/08/08 11:27:56;;;;;;;2.92;1.52;;;;;;;25.45;47.82;97789.48;1344336;106;25919;-77
2022/08/08 11:30:29;;;;;;;2.45;1.65;;;;;;;25.56;47.66;97799.00;1338642;106;27648;-76
2022/08/08 11:33:03;;;;;;;4.72;1.50;;;;;;;25.54;47.68;97792.38;1338584;107;25921;-77
2022/08/08 11:35:30;;;;;;;3.15;1.47;;;;;;;25.56;47.11;97792.09;1338587;107;25880;-76
2022/08/08 11:37:57;;;;;;;4.33;1.37;;;;;;;25.49;47.05;97801.56;1342207;105;25993;-77
2022/08/08 11:40:24;;;;;;;5.75;1.72;;;;;;;25.40;46.76;97791.48;1385749;99;26001;-76
2022/08/08 11:42:51;;;;;;;4.25;1.32;;;;;;;25.30;46.95;97784.72;1448285;99;27467;-76
2022/08/08 11:45:21;;;;;;;4.40;1.70;;;;;;;25.34;47.19;97787.16;1489829;96;25916;-77
2022/08/08 11:47:48;;;;;;;2.83;1.50;;;;;;;25.40;47.37;97793.68;1541916;92;25385;-76
2022/08/08 11:50:20;;;;;;;6.25;1.72;;;;;;;25.48;47.07;97794.38;1529461;93;26576;-77
2022/08/08 11:52:47;;;;;;;5.37;1.55;;;;;;;25.70;47.44;97790.25;1531765;92;25781;-77
2022/08/08 11:55:25;;;;;;;4.55;1.50;;;;;;;25.84;47.14;97789.17;1539912;92;27413;-77
2022/08/08 11:58:08;;;;;;;4.80;1.42;;;;;;;25.86;46.55;97790.81;1530824;93;25339;-76
2022/08/08 12:00:47;;;;;;;3.85;1.80;;;;;;;25.78;46.41;97786.80;1530127;93;25856;-76
2022/08/08 12:03:24;;;;;;;5.17;1.55;;;;;;;25.69;45.95;97774.78;1470132;96;26508;-76
2022/08/08 12:05:52;;;;;;;2.27;1.30;;;;;;;25.41;45.75;97782.89;1432043;100;25778;-77
2022/08/08 12:08:36;;;;;;;5.22;1.40;;;;;;;25.30;46.10;97782.77;1483504;96;28116;-76
2022/08/08 12:11:06;;;;;;;3.12;1.42;;;;;;;25.28;45.84;97778.09;1486352;95;25816;-76
2022/08/08 12:13:33;;;;;;;6.05;1.45;;;;;;;25.30;45.97;97785.53;1459767;98;25948;-77
2022/08/08 12:16:15;;;;;;;2.33;1.40;;;;;;;25.33;45.68;97794.62;1535143;93;26384;-76
2022/08/08 12:18:53;;;;;;;4.70;1.17;;;;;;;25.37;45.50;97781.83;1444128;99;25857;-77
2022/08/08 12:21:30;;;;;;;2.52;1.32;;;;;;;25.38;45.65;97784.03;1403049;102;27437;-76
2022/08/08 12:24:10;;;;;;;6.45;1.50;;;;;;;25.47;45.70;97784.48;1399431;102;25414;-77